| time (UTC) | temp F | wind direction | speed knots | gust knots | rain 1hr in | rain 24hr in | rain mn in | humidity % | barometer mb |
| 20260506011405 | 46 | 29 | 0.0 | 1.7 | 0.00 | 0.00 | 0.00 | 80 | 1014.6 |
| 20260506010904 | 46 | 45 | 0.0 | 0.9 | 0.00 | 0.00 | 0.00 | 81 | 1014.6 |
| 20260506010404 | 46 | 310 | 0.0 | 2.6 | 0.00 | 0.00 | 0.00 | 81 | 1014.6 |
| 20260506005904 | 46 | 35 | 0.0 | 2.6 | 0.00 | 0.00 | 0.00 | 81 | 1014.6 |
| 20260506004405 | 46 | 26 | 0.0 | 0.9 | 0.00 | 0.00 | 0.00 | 83 | 1014.5 |
| 20260506003904 | 46 | 23 | 0.0 | 1.7 | 0.00 | 0.00 | 0.00 | 83 | 1014.5 |
| 20260506003405 | 46 | 334 | 0.0 | 5.2 | 0.00 | 0.00 | 0.00 | 83 | 1014.6 |
| 20260506002904 | 47 | 311 | 0.9 | 4.3 | 0.00 | 0.00 | 0.00 | 83 | 1014.6 |
| 20260506002405 | 47 | 241 | 0.0 | 2.6 | 0.00 | 0.00 | 0.00 | 84 | 1014.6 |
| 20260506001904 | 47 | 57 | 0.0 | 1.7 | 0.00 | 0.00 | 0.00 | 84 | 1014.6 |
| 20260506001404 | 47 | 339 | 0.0 | 0.9 | 0.00 | 0.00 | 0.00 | 84 | 1014.5 |
| 20260506000404 | 47 | 83 | 0.0 | 2.6 | 0.00 | 0.00 | 0.00 | 84 | 1014.5 |
| 20260505235905 | 47 | 58 | 0.9 | 2.6 | 0.00 | 0.00 | 0.00 | 84 | 1014.5 |
| 20260505234904 | 47 | 14 | 0.9 | 2.6 | 0.00 | 0.00 | 0.00 | 84 | 1014.5 |
| 20260505234404 | 47 | 32 | 0.9 | 2.6 | 0.00 | 0.00 | 0.00 | 84 | 1014.5 |
| 20260505232905 | 47 | 31 | 0.0 | 2.6 | 0.00 | 0.00 | 0.00 | 83 | 1014.5 |
| 20260505231905 | 48 | 40 | 1.7 | 5.2 | 0.00 | 0.00 | 0.00 | 82 | 1014.5 |
| 20260505231404 | 48 | 139 | 0.9 | 2.6 | 0.00 | 0.00 | 0.00 | 83 | 1014.4 |
| 20260505230905 | 48 | 348 | 0.9 | 2.6 | 0.00 | 0.00 | 0.00 | 83 | 1014.4 |
| 20260505230405 | 48 | 350 | 0.9 | 4.3 | 0.00 | 0.00 | 0.00 | 83 | 1014.4 |
| 20260505225405 | 48 | 245 | 0.9 | 4.3 | 0.00 | 0.00 | 0.00 | 82 | 1014.4 |
| 20260505224905 | 49 | 350 | 0.0 | 2.6 | 0.00 | 0.00 | 0.00 | 82 | 1014.5 |
| 20260505223905 | 49 | 328 | 0.9 | 2.6 | 0.00 | 0.00 | 0.00 | 80 | 1014.4 |
| 20260505223405 | 49 | 322 | 1.7 | 5.2 | 0.00 | 0.00 | 0.00 | 79 | 1014.4 |
| 20260505222904 | 49 | 339 | 0.9 | 4.3 | 0.00 | 0.00 | 0.00 | 78 | 1014.4 |
| 20260505222404 | 49 | 319 | 0.9 | 2.6 | 0.00 | 0.00 | 0.00 | 78 | 1014.4 |
| 20260505221906 | 49 | 267 | 0.9 | 4.3 | 0.00 | 0.00 | 0.00 | 78 | 1014.4 |
| 20260505221405 | 49 | 8 | 1.7 | 10.4 | 0.00 | 0.00 | 0.00 | 78 | 1014.3 |
| 20260505220905 | 49 | 344 | 1.7 | 6.1 | 0.00 | 0.00 | 0.00 | 79 | 1014.3 |
| 20260505220405 | 49 | 350 | 0.9 | 2.6 | 0.00 | 0.00 | 0.00 | 80 | 1014.4 |
| 20260505215904 | 50 | 340 | 1.7 | 6.1 | 0.00 | 0.00 | 0.00 | 81 | 1014.3 |
| 20260505214904 | 50 | 37 | 0.9 | 4.3 | 0.00 | 0.00 | 0.00 | 81 | 1014.2 |
| 20260505214404 | 50 | 348 | 0.9 | 4.3 | 0.00 | 0.00 | 0.00 | 81 | 1014.2 |
| 20260505213905 | 50 | 322 | 1.7 | 5.2 | 0.00 | 0.00 | 0.00 | 81 | 1014.2 |
| 20260505213404 | 50 | 41 | 0.9 | 4.3 | 0.00 | 0.00 | 0.00 | 81 | 1014.2 |
| 20260505212905 | 50 | 83 | 0.9 | 4.3 | 0.00 | 0.00 | 0.00 | 81 | 1014.2 |
| 20260505212404 | 51 | 337 | 0.0 | 2.6 | 0.00 | 0.00 | 0.00 | 81 | 1014.2 |
| 20260505211905 | 51 | 35 | 0.9 | 2.6 | 0.00 | 0.00 | 0.00 | 81 | 1014.3 |
| 20260505211404 | 51 | 107 | 0.0 | 1.7 | 0.00 | 0.00 | 0.00 | 81 | 1014.3 |
| 20260505210905 | 51 | 350 | 0.9 | 2.6 | 0.00 | 0.00 | 0.00 | 80 | 1014.2 |
| 20260505205904 | 51 | 42 | 0.0 | 2.6 | 0.00 | 0.00 | 0.00 | 81 | 1014.2 |
| 20260505205405 | 51 | 331 | 0.0 | 1.7 | 0.00 | 0.00 | 0.00 | 81 | 1014.1 |
| 20260505204905 | 51 | 358 | 0.9 | 2.6 | 0.00 | 0.00 | 0.00 | 81 | 1014.0 |
| 20260505204416 | 51 | 311 | 0.0 | 2.6 | 0.00 | 0.00 | 0.00 | 81 | 1014.0 |
| 20260505203915 | 51 | 27 | 0.9 | 1.7 | 0.00 | 0.00 | 0.00 | 81 | 1014.1 |
| 20260505203404 | 51 | 13 | 0.0 | 0.9 | 0.00 | 0.00 | 0.00 | 81 | 1014.0 |
| 20260505202904 | 51 | 35 | 0.9 | 1.7 | 0.00 | 0.00 | 0.00 | 80 | 1014.0 |
| 20260505202414 | 51 | 72 | 0.0 | 2.6 | 0.00 | 0.00 | 0.00 | 80 | 1013.9 |
| 20260505201904 | 51 | 78 | 0.0 | 1.7 | 0.00 | 0.00 | 0.00 | 80 | 1013.9 |
| 20260505200404 | 52 | 44 | 0.0 | 2.6 | 0.00 | 0.00 | 0.00 | 79 | 1013.8 |
| 20260505195904 | 52 | 96 | 0.0 | 0.9 | 0.00 | 0.00 | 0.00 | 78 | 1013.8 |
| 20260505195404 | 52 | 84 | 0.0 | 0.9 | 0.00 | 0.00 | 0.00 | 78 | 1013.7 |
| 20260505194905 | 52 | 27 | 0.0 | 1.7 | 0.00 | 0.00 | 0.00 | 77 | 1013.6 |
| 20260505194404 | 52 | 80 | 0.9 | 2.6 | 0.00 | 0.00 | 0.00 | 77 | 1013.6 |
| 20260505193904 | 52 | 70 | 0.9 | 2.6 | 0.00 | 0.00 | 0.00 | 76 | 1013.6 |
| 20260505193404 | 52 | 17 | 0.0 | 1.7 | 0.00 | 0.00 | 0.00 | 75 | 1013.5 |
| 20260505192905 | 52 | 92 | 0.0 | 2.6 | 0.00 | 0.00 | 0.00 | 76 | 1013.5 |
| 20260505192404 | 52 | 71 | 0.0 | 1.7 | 0.00 | 0.00 | 0.00 | 75 | 1013.5 |
| 20260505191905 | 52 | 105 | 0.0 | 0.0 | 0.00 | 0.00 | 0.00 | 75 | 1013.4 |
| 20260505191404 | 52 | 97 | 0.0 | 0.9 | 0.00 | 0.00 | 0.00 | 75 | 1013.4 |
| 20260505190905 | 52 | 22 | 0.0 | 0.9 | 0.00 | 0.00 | 0.00 | 76 | 1013.4 |
| 20260505190404 | 52 | 110 | 0.0 | 0.9 | 0.00 | 0.00 | 0.00 | 76 | 1013.4 |
| 20260505185904 | 53 | 116 | 0.0 | 1.7 | 0.00 | 0.00 | 0.00 | 76 | 1013.4 |
| 20260505185404 | 53 | 117 | 0.0 | 0.9 | 0.00 | 0.00 | 0.00 | 76 | 1013.3 |
| 20260505184904 | 53 | 138 | 0.0 | 0.9 | 0.00 | 0.00 | 0.00 | 75 | 1013.3 |
| 20260505184404 | 53 | 69 | 0.9 | 2.6 | 0.00 | 0.00 | 0.00 | 75 | 1013.3 |
| 20260505183904 | 53 | 103 | 0.0 | 1.7 | 0.00 | 0.00 | 0.00 | 74 | 1013.2 |
| 20260505183404 | 53 | 104 | 0.0 | 0.9 | 0.00 | 0.00 | 0.00 | 74 | 1013.3 |
| 20260505182904 | 54 | 93 | 0.9 | 4.3 | 0.00 | 0.00 | 0.00 | 73 | 1013.2 |
| 20260505181404 | 54 | 30 | 0.0 | 2.6 | 0.00 | 0.00 | 0.00 | 71 | 1013.1 |
| 20260505180904 | 54 | 90 | 0.9 | 4.3 | 0.00 | 0.00 | 0.00 | 70 | 1013.1 |
| 20260505180404 | 54 | 95 | 0.0 | 0.9 | 0.00 | 0.00 | 0.00 | 71 | 1013.1 |
| 20260505175904 | 55 | 89 | 0.0 | 0.9 | 0.00 | 0.00 | 0.00 | 70 | 1013.1 |
| 20260505175404 | 55 | 121 | 0.0 | 2.6 | 0.00 | 0.00 | 0.00 | 71 | 1013.1 |
| 20260505174404 | 55 | 28 | 0.0 | 2.6 | 0.00 | 0.00 | 0.00 | 69 | 1013.1 |
| 20260505173904 | 55 | 89 | 0.0 | 1.7 | 0.00 | 0.00 | 0.00 | 69 | 1013.2 |
| 20260505173404 | 55 | 97 | 0.0 | 2.6 | 0.00 | 0.00 | 0.00 | 70 | 1013.1 |
| 20260505172905 | 56 | 74 | 0.9 | 4.3 | 0.00 | 0.00 | 0.00 | 69 | 1013.1 |
| 20260505171904 | 57 | 56 | 0.0 | 2.6 | 0.00 | 0.00 | 0.00 | 68 | 1013.2 |
| 20260505171404 | 57 | 12 | 0.0 | 4.3 | 0.00 | 0.00 | 0.00 | 66 | 1013.2 |
| 20260505170904 | 58 | 2 | 0.9 | 2.6 | 0.00 | 0.00 | 0.00 | 63 | 1013.3 |
| 20260505170404 | 58 | 90 | 0.9 | 4.3 | 0.00 | 0.00 | 0.00 | 63 | 1013.2 |
| 20260505165904 | 58 | 92 | 0.9 | 5.2 | 0.00 | 0.00 | 0.00 | 63 | 1013.2 |
| 20260505165403 | 58 | 70 | 0.0 | 2.6 | 0.00 | 0.00 | 0.00 | 65 | 1013.2 |
| 20260505164905 | 58 | 87 | 0.9 | 5.2 | 0.00 | 0.00 | 0.00 | 63 | 1013.2 |
| 20260505164404 | 58 | 30 | 0.0 | 7.0 | 0.00 | 0.00 | 0.00 | 62 | 1013.1 |
| 20260505163904 | 59 | 107 | 0.0 | 1.7 | 0.00 | 0.00 | 0.00 | 65 | 1013.1 |
| 20260505163404 | 58 | 44 | 0.0 | 2.6 | 0.00 | 0.00 | 0.00 | 65 | 1013.1 |
| 20260505162904 | 58 | 105 | 0.0 | 1.7 | 0.00 | 0.00 | 0.00 | 68 | 1013.0 |
| 20260505162404 | 57 | 59 | 0.9 | 4.3 | 0.00 | 0.00 | 0.00 | 67 | 1013.1 |
| 20260505161905 | 56 | 83 | 0.0 | 1.7 | 0.00 | 0.00 | 0.00 | 67 | 1013.1 |
| 20260505161404 | 57 | 112 | 0.0 | 1.7 | 0.00 | 0.00 | 0.00 | 66 | 1013.0 |
| 20260505160904 | 57 | 17 | 0.9 | 2.6 | 0.00 | 0.00 | 0.00 | 64 | 1013.1 |
| 20260505160404 | 58 | 19 | 0.9 | 2.6 | 0.00 | 0.00 | 0.00 | 64 | 1013.1 |
| 20260505152904 | 61 | 49 | 0.9 | 7.0 | 0.00 | 0.00 | 0.00 | 61 | 1013.3 |
| 20260505152403 | 60 | 65 | 0.0 | 1.7 | 0.00 | 0.00 | 0.00 | 61 | 1013.2 |
| 20260505151904 | 60 | 46 | 1.7 | 2.6 | 0.00 | 0.00 | 0.00 | 58 | 1013.2 |
| 20260505150903 | 59 | 106 | 0.0 | 4.3 | 0.00 | 0.00 | 0.00 | 62 | 1013.2 |
| 20260505150404 | 59 | 127 | 0.0 | 1.7 | 0.00 | 0.00 | 0.00 | 61 | 1013.2 |
| 20260505140406 | 60 | 138 | 0.0 | 0.9 | 0.00 | 0.00 | 0.00 | 60 | 1013.3 |
| 20260505124906 | 57 | 113 | 0.0 | 2.6 | 0.00 | 0.00 | 0.00 | 66 | 1013.5 |
| 20260505124405 | 57 | 27 | 0.0 | 1.7 | 0.00 | 0.00 | 0.00 | 64 | 1013.4 |
| 20260505123906 | 58 | 110 | 0.9 | 2.6 | 0.00 | 0.00 | 0.00 | 63 | 1013.4 |
| 20260505123405 | 59 | 68 | 0.9 | 2.6 | 0.00 | 0.00 | 0.00 | 60 | 1013.4 |
| 20260505122906 | 60 | 61 | 0.0 | 1.7 | 0.00 | 0.00 | 0.00 | 57 | 1013.4 |
| 20260505122405 | 60 | 102 | 0.9 | 2.6 | 0.00 | 0.00 | 0.00 | 57 | 1013.4 |
| 20260505121906 | 60 | 101 | 0.9 | 2.6 | 0.00 | 0.00 | 0.00 | 58 | 1013.4 |
| 20260505121412 | 60 | 114 | 0.0 | 4.3 | 0.00 | 0.00 | 0.00 | 56 | 1013.5 |
| 20260505120905 | 61 | 96 | 0.9 | 1.7 | 0.00 | 0.00 | 0.00 | 54 | 1013.5 |
| 20260505120405 | 62 | 57 | 0.0 | 2.6 | 0.00 | 0.00 | 0.00 | 54 | 1013.5 |
| 20260505115905 | 62 | 63 | 0.0 | 1.7 | 0.00 | 0.00 | 0.00 | 56 | 1013.4 |
| 20260505115405 | 60 | 95 | 0.0 | 2.6 | 0.00 | 0.00 | 0.00 | 59 | 1013.4 |
| 20260505114906 | 60 | 55 | 0.9 | 2.6 | 0.00 | 0.00 | 0.00 | 55 | 1013.5 |
| 20260505114405 | 59 | 102 | 0.0 | 2.6 | 0.00 | 0.00 | 0.00 | 60 | 1013.4 |
| 20260505113906 | 58 | 91 | 0.0 | 4.3 | 0.00 | 0.00 | 0.00 | 62 | 1013.5 |
| 20260505112905 | 57 | 44 | 0.9 | 4.3 | 0.00 | 0.00 | 0.00 | 61 | 1013.6 |
| 20260505112405 | 57 | 90 | 0.9 | 5.2 | 0.00 | 0.00 | 0.00 | 64 | 1013.8 |
| 20260505111405 | 57 | 103 | 0.0 | 4.3 | 0.00 | 0.00 | 0.00 | 62 | 1013.8 |
| 20260505110905 | 57 | 117 | 0.9 | 2.6 | 0.00 | 0.00 | 0.00 | 59 | 1013.7 |
| 20260505110405 | 58 | 43 | 0.9 | 2.6 | 0.00 | 0.00 | 0.00 | 60 | 1013.7 |
| 20260505101905 | 56 | 35 | 0.9 | 4.3 | 0.00 | 0.00 | 0.00 | 61 | 1014.1 |
| 20260505101405 | 55 | 104 | 0.0 | 2.6 | 0.00 | 0.00 | 0.00 | 63 | 1014.1 |
| 20260505100905 | 56 | 87 | 0.0 | 1.7 | 0.00 | 0.00 | 0.00 | 61 | 1014.1 |
| 20260505100405 | 56 | 85 | 0.0 | 8.7 | 0.00 | 0.00 | 0.00 | 61 | 1014.2 |
| 20260505095905 | 57 | 356 | 1.7 | 5.2 | 0.00 | 0.00 | 0.00 | 59 | 1014.2 |
| 20260505095405 | 56 | 56 | 0.0 | 2.6 | 0.00 | 0.00 | 0.00 | 62 | 1014.2 |
| 20260505094905 | 55 | 57 | 1.7 | 2.6 | 0.00 | 0.00 | 0.00 | 61 | 1014.2 |
| 20260505094405 | 55 | 25 | 0.9 | 2.6 | 0.00 | 0.00 | 0.00 | 63 | 1014.3 |
| 20260505093905 | 54 | 78 | 0.9 | 2.6 | 0.00 | 0.00 | 0.00 | 65 | 1014.2 |
| 20260505092906 | 55 | 75 | 0.0 | 2.6 | 0.00 | 0.00 | 0.00 | 64 | 1014.3 |
| 20260505092405 | 56 | 99 | 0.9 | 2.6 | 0.00 | 0.00 | 0.00 | 65 | 1014.3 |
| 20260505091905 | 56 | 59 | 0.0 | 2.6 | 0.00 | 0.00 | 0.00 | 64 | 1014.2 |
| 20260505091405 | 56 | 37 | 0.0 | 2.6 | 0.00 | 0.00 | 0.00 | 64 | 1014.2 |
| 20260505090905 | 56 | 34 | 0.9 | 4.3 | 0.00 | 0.00 | 0.00 | 64 | 1014.3 |
| 20260505085905 | 57 | 84 | 0.9 | 4.3 | 0.00 | 0.00 | 0.00 | 63 | 1014.3 |
| 20260505085405 | 56 | 104 | 0.0 | 2.6 | 0.00 | 0.00 | 0.00 | 65 | 1014.4 |
| 20260505084906 | 56 | 36 | 0.9 | 5.2 | 0.00 | 0.00 | 0.00 | 64 | 1014.4 |
| 20260505084405 | 56 | 88 | 0.0 | 2.6 | 0.00 | 0.00 | 0.00 | 67 | 1014.5 |
| 20260505083905 | 56 | 78 | 0.9 | 2.6 | 0.00 | 0.00 | 0.00 | 66 | 1014.4 |
| 20260505083405 | 55 | 159 | 0.9 | 4.3 | 0.00 | 0.00 | 0.00 | 66 | 1014.5 |
| 20260505082906 | 55 | 72 | 0.9 | 2.6 | 0.00 | 0.00 | 0.00 | 68 | 1014.5 |
| 20260505082405 | 55 | 33 | 0.9 | 2.6 | 0.00 | 0.00 | 0.00 | 69 | 1014.5 |
| 20260505081905 | 55 | 99 | 0.0 | 2.6 | 0.00 | 0.00 | 0.00 | 71 | 1014.6 |
| 20260505081405 | 54 | 89 | 0.0 | 2.6 | 0.00 | 0.00 | 0.00 | 73 | 1014.6 |
| 20260505080905 | 54 | 5 | 0.9 | 2.6 | 0.00 | 0.00 | 0.00 | 73 | 1014.6 |
| 20260505080406 | 54 | 75 | 0.0 | 2.6 | 0.00 | 0.00 | 0.00 | 73 | 1014.7 |
| 20260505075905 | 54 | 329 | 0.9 | 4.3 | 0.00 | 0.00 | 0.00 | 75 | 1014.5 |
| 20260505075405 | 54 | 69 | 0.0 | 1.7 | 0.00 | 0.00 | 0.00 | 76 | 1014.6 |
| 20260505074905 | 54 | 97 | 0.0 | 1.7 | 0.00 | 0.00 | 0.00 | 76 | 1014.6 |
| 20260505073905 | 53 | 88 | 0.9 | 2.6 | 0.00 | 0.00 | 0.00 | 75 | 1014.6 |
| 20260505073405 | 53 | 52 | 0.9 | 4.3 | 0.00 | 0.00 | 0.00 | 76 | 1014.6 |
| 20260505072905 | 53 | 52 | 0.9 | 2.6 | 0.00 | 0.00 | 0.00 | 77 | 1014.5 |
| 20260505071905 | 52 | 96 | 0.0 | 0.9 | 0.00 | 0.00 | 0.00 | 81 | 1014.7 |
| 20260505071405 | 52 | 123 | 0.9 | 4.3 | 0.00 | 0.00 | 0.00 | 79 | 1014.7 |
| 20260505070905 | 52 | 80 | 0.0 | 2.6 | 0.00 | 0.00 | 0.00 | 81 | 1014.7 |
| 20260505070405 | 52 | 68 | 0.9 | 4.3 | 0.00 | 0.00 | 0.00 | 81 | 1014.7 |
| 20260505065905 | 52 | 112 | 0.0 | 0.9 | 0.00 | 0.00 | 0.00 | 83 | 1014.7 |
| 20260505065404 | 52 | 41 | 0.0 | 0.9 | 0.00 | 0.00 | 0.00 | 86 | 1014.7 |
| 20260505064905 | 51 | 88 | 0.0 | 0.9 | 0.00 | 0.00 | 0.00 | 86 | 1014.7 |
| 20260505064405 | 51 | 79 | 0.0 | 0.9 | 0.00 | 0.00 | 0.00 | 87 | 1014.7 |
| 20260505063905 | 50 | 100 | 0.0 | 2.6 | 0.00 | 0.00 | 0.00 | 87 | 1014.8 |
| 20260505063404 | 50 | 88 | 0.0 | 1.7 | 0.00 | 0.00 | 0.00 | 88 | 1014.8 |
| 20260505062905 | 49 | 95 | 0.0 | 2.6 | 0.00 | 0.00 | 0.00 | 89 | 1014.7 |
| 20260505062405 | 49 | 120 | 0.0 | 2.6 | 0.00 | 0.00 | 0.00 | 90 | 1014.7 |
| 20260505061405 | 48 | 98 | 0.0 | 0.9 | 0.00 | 0.00 | 0.00 | 92 | 1014.6 |
| 20260505060905 | 48 | 104 | 0.0 | 2.6 | 0.00 | 0.00 | 0.00 | 92 | 1014.6 |
| 20260505060405 | 47 | 93 | 0.0 | 0.9 | 0.00 | 0.00 | 0.00 | 93 | 1014.6 |
| 20260505055405 | 46 | 49 | 0.0 | 0.9 | 0.00 | 0.00 | 0.00 | 93 | 1014.6 |
| 20260505054905 | 46 | 124 | 0.0 | 2.6 | 0.00 | 0.00 | 0.00 | 93 | 1014.6 |
| 20260505054405 | 46 | 103 | 0.0 | 0.9 | 0.00 | 0.00 | 0.00 | 93 | 1014.6 |
| 20260505053905 | 46 | 112 | 0.0 | 0.9 | 0.00 | 0.00 | 0.00 | 94 | 1014.6 |
| 20260505053405 | 46 | 108 | 0.0 | 0.9 | 0.00 | 0.00 | 0.00 | 94 | 1014.6 |
| 20260505052904 | 46 | 26 | 0.9 | 2.6 | 0.00 | 0.00 | 0.00 | 94 | 1014.6 |
| 20260505052405 | 46 | 90 | 0.0 | 2.6 | 0.00 | 0.00 | 0.00 | 94 | 1014.6 |
| 20260505051905 | 46 | 106 | 0.0 | 0.9 | 0.00 | 0.00 | 0.00 | 94 | 1014.5 |
| 20260505051405 | 46 | 125 | 0.0 | 2.6 | 0.00 | 0.00 | 0.00 | 94 | 1014.6 |
| 20260505050905 | 46 | 75 | 0.0 | 1.7 | 0.00 | 0.00 | 0.00 | 95 | 1014.6 |
| 20260505050405 | 46 | 109 | 0.0 | 0.9 | 0.00 | 0.00 | 0.00 | 95 | 1014.6 |
| 20260505041405 | 45 | 86 | 0.0 | 0.0 | 0.00 | 0.00 | 0.00 | 95 | 1014.5 |
| 20260505040904 | 46 | 86 | 0.0 | 0.9 | 0.00 | 0.00 | 0.00 | 95 | 1014.4 |
| 20260505040404 | 46 | 86 | 0.0 | 0.0 | 0.00 | 0.00 | 0.00 | 96 | 1014.4 |
| 20260505035904 | 46 | 86 | 0.0 | 0.9 | 0.00 | 0.00 | 0.00 | 96 | 1014.4 |
| 20260505035404 | 45 | 86 | 0.0 | 0.9 | 0.00 | 0.00 | 0.00 | 96 | 1014.4 |
| 20260505033905 | 45 | 102 | 0.0 | 0.0 | 0.00 | 0.00 | 0.00 | 96 | 1014.4 |
| 20260505033405 | 45 | 102 | 0.0 | 0.9 | 0.00 | 0.00 | 0.00 | 96 | 1014.5 |
| 20260505032404 | 45 | 102 | 0.0 | 0.0 | 0.00 | 0.00 | 0.00 | 96 | 1014.6 |
| 20260505031905 | 45 | 102 | 0.0 | 0.0 | 0.00 | 0.00 | 0.00 | 96 | 1014.6 |
| 20260505031412 | 44 | 102 | 0.0 | 1.7 | 0.00 | 0.00 | 0.00 | 96 | 1014.6 |
| 20260505030905 | 44 | 106 | 0.0 | 0.9 | 0.00 | 0.00 | 0.00 | 95 | 1014.7 |
| 20260505030404 | 44 | 106 | 0.0 | 0.0 | 0.00 | 0.00 | 0.00 | 95 | 1014.7 |
| 20260505025905 | 44 | 106 | 0.0 | 0.0 | 0.00 | 0.00 | 0.00 | 94 | 1014.6 |
| 20260505025405 | 44 | 106 | 0.0 | 0.0 | 0.00 | 0.00 | 0.00 | 94 | 1014.7 |
| 20260505024405 | 44 | 106 | 0.0 | 0.0 | 0.00 | 0.00 | 0.00 | 93 | 1014.6 |
| 20260505023904 | 44 | 106 | 0.0 | 0.0 | 0.00 | 0.00 | 0.00 | 93 | 1014.6 |
| 20260505023405 | 44 | 106 | 0.0 | 0.9 | 0.00 | 0.00 | 0.00 | 93 | 1014.6 |
| 20260505022905 | 44 | 106 | 0.0 | 0.0 | 0.00 | 0.00 | 0.00 | 93 | 1014.7 |
| 20260505022405 | 45 | 106 | 0.0 | 0.0 | 0.00 | 0.00 | 0.00 | 93 | 1014.7 |
| 20260505021905 | 45 | 106 | 0.0 | 0.0 | 0.00 | 0.00 | 0.00 | 92 | 1014.7 |
| 20260505021405 | 45 | 106 | 0.0 | 0.0 | 0.00 | 0.00 | 0.00 | 92 | 1014.7 |
| 20260505020905 | 45 | 106 | 0.0 | 0.0 | 0.00 | 0.00 | 0.00 | 92 | 1014.8 |
| 20260505020404 | 45 | 106 | 0.0 | 0.0 | 0.00 | 0.00 | 0.00 | 91 | 1014.9 |
| 20260505015904 | 45 | 106 | 0.0 | 0.0 | 0.00 | 0.00 | 0.00 | 91 | 1014.8 |
| 20260505015405 | 45 | 106 | 0.0 | 0.0 | 0.00 | 0.00 | 0.00 | 91 | 1014.8 |
| 20260505014905 | 46 | 106 | 0.0 | 0.9 | 0.00 | 0.00 | 0.00 | 91 | 1014.7 |
| 20260505014405 | 46 | 106 | 0.0 | 0.9 | 0.00 | 0.00 | 0.00 | 91 | 1014.8 |
| 20260505013904 | 46 | 106 | 0.0 | 0.0 | 0.00 | 0.00 | 0.00 | 90 | 1014.9 |
| 20260505013405 | 46 | 146 | 0.0 | 0.9 | 0.00 | 0.00 | 0.00 | 90 | 1014.9 |
| 20260505012905 | 47 | 147 | 0.0 | 0.0 | 0.00 | 0.00 | 0.00 | 90 | 1015.0 |
| 20260505012404 | 47 | 148 | 0.0 | 0.9 | 0.00 | 0.00 | 0.00 | 90 | 1015.0 |